createdAt,value
2018-11-21T00:02:14.742Z,52.57
2018-11-21T00:04:43.243Z,49.13
2018-11-21T00:07:11.686Z,50.97
2018-11-21T00:09:40.126Z,48.23
2018-11-21T00:12:08.597Z,55.53
2018-11-21T00:14:37.151Z,47.67
2018-11-21T00:17:05.710Z,53.67
2018-11-21T00:19:34.019Z,51.10
2018-11-21T00:22:02.440Z,42.13
2018-11-21T00:24:31.200Z,52.27
2018-11-21T00:27:00.356Z,49.77
2018-11-21T00:29:28.807Z,46.30
2018-11-21T00:31:57.802Z,51.30
2018-11-21T00:34:26.546Z,46.37
2018-11-21T00:36:55.248Z,45.10
2018-11-21T00:39:24.169Z,44.57
2018-11-21T00:41:52.652Z,40.23
2018-11-21T00:44:21.223Z,49.87
2018-11-21T00:46:50.234Z,45.90
2018-11-21T00:49:18.776Z,44.83
2018-11-21T00:51:47.530Z,45.63
2018-11-21T00:54:16.939Z,45.23
2018-11-21T00:56:45.198Z,48.07
2018-11-21T00:59:14.067Z,44.80
2018-11-21T01:01:42.920Z,44.07
2018-11-21T01:04:11.600Z,43.60
2018-11-21T01:06:40.447Z,44.00
2018-11-21T01:09:09.030Z,39.90
2018-11-21T01:11:37.357Z,46.13
2018-11-21T01:14:05.720Z,41.43
2018-11-21T01:16:33.964Z,41.10
2018-11-21T01:19:02.404Z,42.67
2018-11-21T01:21:30.765Z,41.70
2018-11-21T01:23:59.096Z,48.33
2018-11-21T01:26:27.400Z,43.53
2018-11-21T01:28:56.076Z,48.20
2018-11-21T01:31:24.482Z,40.13
2018-11-21T01:33:52.852Z,45.20
2018-11-21T01:36:21.139Z,44.43
2018-11-21T01:38:49.561Z,41.90
2018-11-21T01:41:17.888Z,45.70
2018-11-21T01:43:46.701Z,41.30
2018-11-21T01:46:15.577Z,45.90
2018-11-21T01:48:44.558Z,45.67
2018-11-21T01:51:13.250Z,41.70
2018-11-21T01:53:42.007Z,41.43
2018-11-21T01:56:10.737Z,40.60
2018-11-21T01:58:39.481Z,41.37
2018-11-21T02:01:08.370Z,42.47
2018-11-21T02:03:37.360Z,41.33
2018-11-21T02:06:06.507Z,44.13
2018-11-21T02:08:35.092Z,46.57
2018-11-21T02:11:03.423Z,43.37
2018-11-21T02:13:32.411Z,43.97
2018-11-21T02:16:01.372Z,41.53
2018-11-21T02:18:30.068Z,46.60
2018-11-21T02:20:59.060Z,42.80
2018-11-21T02:23:27.647Z,46.53
2018-11-21T02:25:55.921Z,43.00
2018-11-21T02:28:25.022Z,40.27
2018-11-21T02:30:53.548Z,40.87
2018-11-21T02:33:22.425Z,38.77
2018-11-21T02:35:51.155Z,48.77
2018-11-21T02:38:19.562Z,44.13
2018-11-21T02:40:48.153Z,37.70
2018-11-21T02:43:16.994Z,43.50
2018-11-21T02:45:45.305Z,41.73
2018-11-21T02:48:13.697Z,40.80
2018-11-21T02:50:42.796Z,42.83
2018-11-21T02:53:11.464Z,39.70
2018-11-21T02:55:40.360Z,42.33
2018-11-21T02:58:08.867Z,42.70
2018-11-21T03:00:37.157Z,45.33
2018-11-21T03:03:06.469Z,41.30
2018-11-21T03:05:35.458Z,43.47
2018-11-21T03:08:03.869Z,39.90
2018-11-21T03:10:32.190Z,45.37
2018-11-21T03:13:01.098Z,45.57
2018-11-21T03:15:29.861Z,44.93
2018-11-21T03:17:58.661Z,47.30
2018-11-21T03:20:27.759Z,47.93
2018-11-21T03:22:56.873Z,41.27
2018-11-21T03:25:25.494Z,45.63
2018-11-21T03:27:54.159Z,42.10
2018-11-21T03:30:23.169Z,44.23
2018-11-21T03:32:51.923Z,46.37
2018-11-21T03:35:20.685Z,45.10
2018-11-21T03:37:49.745Z,45.53
2018-11-21T03:40:18.813Z,44.70
2018-11-21T03:42:47.159Z,47.07
2018-11-21T03:45:15.969Z,46.77
2018-11-21T03:47:44.631Z,42.93
2018-11-21T03:50:13.427Z,38.80
2018-11-21T03:52:42.182Z,48.13
2018-11-21T03:55:11.187Z,45.17
2018-11-21T03:57:40.005Z,47.90
2018-11-21T04:00:13.282Z,47.80
2018-11-21T04:02:42.586Z,45.83
2018-11-21T04:05:12.511Z,50.13
2018-11-21T04:07:40.871Z,43.40
2018-11-21T04:10:11.355Z,47.23
2018-11-21T04:12:39.730Z,49.87
2018-11-21T04:15:09.920Z,50.83
2018-11-21T04:17:38.422Z,42.30
2018-11-21T04:20:07.287Z,48.07
2018-11-21T04:22:35.760Z,50.13
2018-11-21T04:25:04.501Z,47.40
2018-11-21T04:27:32.909Z,53.10
2018-11-21T04:30:01.268Z,47.80
2018-11-21T04:32:29.514Z,47.80
2018-11-21T04:34:57.904Z,48.30
2018-11-21T04:37:26.319Z,47.10
2018-11-21T04:39:54.698Z,48.63
2018-11-21T04:42:23.332Z,49.07
2018-11-21T04:44:51.611Z,44.90
2018-11-21T04:47:20.087Z,48.53
2018-11-21T04:49:48.550Z,50.10
2018-11-21T04:52:17.027Z,53.90
2018-11-21T04:54:45.732Z,49.17
2018-11-21T04:57:14.068Z,50.43
2018-11-21T04:59:42.520Z,50.00
2018-11-21T05:02:10.849Z,48.47
2018-11-21T05:04:39.500Z,50.40
2018-11-21T05:07:08.465Z,48.80
2018-11-21T05:09:37.179Z,54.93
2018-11-21T05:12:05.898Z,56.17
2018-11-21T05:14:35.422Z,54.87
2018-11-21T05:17:04.059Z,47.70
2018-11-21T05:19:32.611Z,49.50
2018-11-21T05:22:01.428Z,49.57
2018-11-21T05:24:29.887Z,51.03
2018-11-21T05:26:58.682Z,53.57
2018-11-21T05:29:27.284Z,51.93
2018-11-21T05:31:55.764Z,50.07
2018-11-21T05:34:24.350Z,48.37
2018-11-21T05:36:52.685Z,48.03
2018-11-21T05:39:21.110Z,52.67
2018-11-21T05:41:49.573Z,48.07
2018-11-21T05:44:17.981Z,54.77
2018-11-21T05:46:46.299Z,47.37
2018-11-21T05:49:14.715Z,50.43
2018-11-21T05:51:43.076Z,51.57
2018-11-21T05:54:11.382Z,53.97
2018-11-21T05:56:39.795Z,52.50
2018-11-21T05:59:08.175Z,52.83
2018-11-21T06:01:36.610Z,54.53
2018-11-21T06:04:04.858Z,52.33
2018-11-21T06:06:33.171Z,52.47
2018-11-21T06:09:01.654Z,53.70
2018-11-21T06:11:30.649Z,53.13
2018-11-21T06:13:58.987Z,53.67
2018-11-21T06:16:28.485Z,49.50
2018-11-21T06:18:57.077Z,51.70
2018-11-21T06:21:25.663Z,47.87
2018-11-21T06:23:54.355Z,55.50
2018-11-21T06:26:23.267Z,53.23
2018-11-21T06:28:51.883Z,53.90
2018-11-21T06:31:20.668Z,52.20
2018-11-21T06:33:49.501Z,52.43
2018-11-21T06:36:21.106Z,56.13
2018-11-21T06:38:49.611Z,52.07
2018-11-21T06:41:18.526Z,54.57
2018-11-21T06:43:51.409Z,55.57
2018-11-21T06:46:20.917Z,56.27
2018-11-21T06:48:50.516Z,55.67
2018-11-21T06:51:18.952Z,54.50
2018-11-21T06:53:47.512Z,51.10
2018-11-21T06:56:15.836Z,57.03
2018-11-21T06:58:44.492Z,59.60
2018-11-21T07:01:13.132Z,60.53
2018-11-21T07:03:41.601Z,54.50
2018-11-21T07:06:10.219Z,56.50
2018-11-21T07:08:38.615Z,56.03
2018-11-21T07:11:07.237Z,55.93
2018-11-21T07:13:35.841Z,55.23
2018-11-21T07:16:04.502Z,55.57
2018-11-21T07:18:32.980Z,57.73
2018-11-21T07:21:02.115Z,57.87
2018-11-21T07:23:30.630Z,53.17
2018-11-21T07:25:59.216Z,63.13
2018-11-21T07:28:27.720Z,57.93
2018-11-21T07:30:56.267Z,60.50
2018-11-21T07:33:24.795Z,57.43
2018-11-21T07:35:53.416Z,56.63
2018-11-21T07:38:22.223Z,60.03
2018-11-21T07:40:50.810Z,63.07
2018-11-21T07:43:19.432Z,68.60
2018-11-21T07:45:47.934Z,59.30
2018-11-21T07:48:20.340Z,65.63
2018-11-21T07:50:45.609Z,57.30
2018-11-21T07:53:14.341Z,65.87
2018-11-21T07:55:43.184Z,61.67
2018-11-21T07:58:13.955Z,69.17
2018-11-21T08:00:57.487Z,63.87
2018-11-21T08:03:27.995Z,59.07
2018-11-21T08:06:02.601Z,62.10
2018-11-21T08:08:51.837Z,67.43
2018-11-21T08:11:37.852Z,66.33
2018-11-21T08:14:31.318Z,55.90
2018-11-21T08:17:18.734Z,62.90
2018-11-21T08:20:07.122Z,62.27
2018-11-21T08:22:53.064Z,60.97
2018-11-21T08:25:39.309Z,62.40
2018-11-21T08:28:35.646Z,65.07
2018-11-21T08:31:04.053Z,66.23
2018-11-21T08:33:34.094Z,62.23
2018-11-21T08:36:01.152Z,69.10
2018-11-21T08:38:29.519Z,68.57
2018-11-21T08:40:57.973Z,64.57
2018-11-21T08:43:26.299Z,59.27
2018-11-21T08:45:54.635Z,65.97
2018-11-21T08:48:23.480Z,68.67
2018-11-21T08:50:52.235Z,64.43
2018-11-21T08:53:21.434Z,71.83
2018-11-21T08:55:50.501Z,63.20
2018-11-21T08:58:19.217Z,66.43
2018-11-21T09:00:49.049Z,64.20
2018-11-21T09:03:18.248Z,72.47
2018-11-21T09:05:46.908Z,62.57
2018-11-21T09:08:15.769Z,68.63
2018-11-21T09:10:44.626Z,66.60
2018-11-21T09:13:14.198Z,62.27
2018-11-21T09:15:43.169Z,76.80
2018-11-21T09:18:11.848Z,66.07
2018-11-21T09:20:40.423Z,65.63
2018-11-21T09:23:09.510Z,66.27
2018-11-21T09:25:38.456Z,61.10
2018-11-21T09:28:07.410Z,62.87
2018-11-21T09:30:36.132Z,60.87
2018-11-21T09:33:05.147Z,59.83
2018-11-21T09:35:34.086Z,60.57
2018-11-21T09:38:02.548Z,65.93
2018-11-21T09:40:31.562Z,59.13
2018-11-21T09:43:00.010Z,67.67
2018-11-21T09:45:28.319Z,61.87
2018-11-21T09:47:56.683Z,62.37
2018-11-21T09:50:26.862Z,60.30
2018-11-21T09:52:55.551Z,58.60
2018-11-21T09:55:23.876Z,57.57
2018-11-21T09:57:52.264Z,68.27
2018-11-21T10:00:56.976Z,61.77
2018-11-21T10:03:27.719Z,60.83
2018-11-21T10:05:59.013Z,65.27
2018-11-21T10:08:40.435Z,62.47
2018-11-21T10:11:09.639Z,60.80
2018-11-21T10:13:38.031Z,59.77
2018-11-21T10:16:07.251Z,57.07
2018-11-21T10:18:36.714Z,59.87
2018-11-21T10:21:06.947Z,58.80
2018-11-21T10:23:35.558Z,58.17
2018-11-21T10:26:04.377Z,53.73
2018-11-21T10:28:32.751Z,60.13
2018-11-21T10:31:01.166Z,59.23
2018-11-21T10:33:29.742Z,55.73
2018-11-21T10:35:58.257Z,58.67
2018-11-21T10:38:26.813Z,56.77
2018-11-21T10:40:55.164Z,60.80
2018-11-21T10:43:26.428Z,58.67
2018-11-21T10:45:52.583Z,52.03
2018-11-21T10:48:21.176Z,54.40
2018-11-21T10:50:49.565Z,57.83
2018-11-21T10:53:18.633Z,58.87
2018-11-21T10:55:47.853Z,63.77
2018-11-21T10:58:16.608Z,52.60
2018-11-21T11:01:03.543Z,56.07
2018-11-21T11:03:40.035Z,58.53
2018-11-21T11:06:26.324Z,60.90
2018-11-21T11:09:12.692Z,62.07
2018-11-21T11:12:00.193Z,56.37
2018-11-21T11:14:50.195Z,57.03
2018-11-21T11:17:36.449Z,58.83
2018-11-21T11:20:24.650Z,66.10
2018-11-21T11:23:10.714Z,56.33
2018-11-21T11:26:06.969Z,58.47
2018-11-21T11:28:52.940Z,57.10
2018-11-21T11:31:29.069Z,62.33
2018-11-21T11:34:27.461Z,57.27
2018-11-21T11:37:24.041Z,62.07
2018-11-21T11:40:10.235Z,60.03
2018-11-21T11:43:00.345Z,60.27
2018-11-21T11:45:47.815Z,59.73
2018-11-21T11:48:47.427Z,66.27
2018-11-21T11:51:43.592Z,55.47
2018-11-21T11:54:30.134Z,59.50
2018-11-21T11:57:17.618Z,57.77
2018-11-21T12:00:20.312Z,61.33
2018-11-21T12:03:13.736Z,59.57
2018-11-21T12:06:06.653Z,57.97
2018-11-21T12:08:47.619Z,56.53
2018-11-21T12:11:30.999Z,61.20
2018-11-21T12:14:23.120Z,51.47
2018-11-21T12:17:10.562Z,55.77
2018-11-21T12:20:00.993Z,60.40
2018-11-21T12:22:46.883Z,54.67
2018-11-21T12:25:43.069Z,55.47
2018-11-21T12:28:29.307Z,58.77
2018-11-21T12:31:22.333Z,59.73
2018-11-21T12:34:07.945Z,60.50
2018-11-21T12:36:54.342Z,59.47
2018-11-21T12:39:41.794Z,61.03
2018-11-21T12:42:26.307Z,56.30
2018-11-21T12:45:16.358Z,59.83
2018-11-21T12:48:02.425Z,56.07
2018-11-21T12:50:55.610Z,52.17
2018-11-21T12:53:49.204Z,61.40
2018-11-21T12:56:35.386Z,62.27
2018-11-21T12:59:37.990Z,59.07
2018-11-21T13:02:24.149Z,54.93
2018-11-21T13:05:09.595Z,57.97
2018-11-21T13:08:03.949Z,58.67
2018-11-21T13:10:49.971Z,64.83
2018-11-21T13:13:35.847Z,59.10
2018-11-21T13:16:22.009Z,58.90
2018-11-21T13:19:15.386Z,57.50
2018-11-21T13:22:02.788Z,55.53
2018-11-21T13:24:40.929Z,57.47
2018-11-21T13:27:27.122Z,62.90
2018-11-21T13:30:13.039Z,60.33
2018-11-21T13:33:03.829Z,57.73
2018-11-21T13:35:44.595Z,63.13
2018-11-21T13:38:38.485Z,60.03
2018-11-21T13:41:25.895Z,55.60
2018-11-21T13:44:13.419Z,59.37
2018-11-21T13:46:59.461Z,58.13
2018-11-21T13:49:45.741Z,63.80
2018-11-21T13:52:25.686Z,56.97
2018-11-21T13:54:58.255Z,61.37
2018-11-21T13:57:26.980Z,64.27
2018-11-21T13:59:55.754Z,55.63
2018-11-21T14:02:24.094Z,61.73
2018-11-21T14:04:52.519Z,57.77
2018-11-21T14:07:20.787Z,59.43
2018-11-21T14:09:49.216Z,62.20
2018-11-21T14:12:17.617Z,57.60
2018-11-21T14:14:45.999Z,64.13
2018-11-21T14:17:14.453Z,61.07
2018-11-21T14:19:42.906Z,56.87
2018-11-21T14:22:11.157Z,59.23
2018-11-21T14:24:39.690Z,62.43
2018-11-21T14:27:07.989Z,59.73
2018-11-21T14:29:36.284Z,55.07
2018-11-21T14:32:05.188Z,62.03
2018-11-21T14:34:34.010Z,59.10
2018-11-21T14:37:03.473Z,57.93
2018-11-21T14:39:31.806Z,61.37
2018-11-21T14:42:00.172Z,54.27
2018-11-21T14:44:28.627Z,65.37
2018-11-21T14:46:58.174Z,53.53
2018-11-21T14:49:26.513Z,56.60
2018-11-21T14:51:55.208Z,54.00
2018-11-21T14:54:23.527Z,60.83
2018-11-21T14:56:51.884Z,56.40
2018-11-21T14:59:20.268Z,56.27
2018-11-21T15:01:48.599Z,58.23
2018-11-21T15:04:17.087Z,55.33
2018-11-21T15:06:45.484Z,57.40
2018-11-21T15:09:14.332Z,54.53
2018-11-21T15:11:43.023Z,58.10
2018-11-21T15:14:11.274Z,58.80
2018-11-21T15:16:39.707Z,56.10
2018-11-21T15:19:08.078Z,51.03
2018-11-21T15:21:36.362Z,61.90
2018-11-21T15:24:04.808Z,53.87
2018-11-21T15:26:33.104Z,56.47
2018-11-21T15:29:01.474Z,55.50
2018-11-21T15:31:29.882Z,56.93
2018-11-21T15:33:58.621Z,49.80
2018-11-21T15:36:28.392Z,57.97
2018-11-21T15:38:56.851Z,54.60
2018-11-21T15:41:24.988Z,55.40
2018-11-21T15:43:53.642Z,53.07
2018-11-21T15:46:22.374Z,48.47
2018-11-21T15:48:51.237Z,54.07
2018-11-21T15:51:19.988Z,51.80
2018-11-21T15:53:48.451Z,57.57
2018-11-21T15:56:16.758Z,55.87
2018-11-21T15:58:45.424Z,51.37
2018-11-21T16:01:13.613Z,51.93
2018-11-21T16:03:41.980Z,53.73
2018-11-21T16:06:10.310Z,56.40
2018-11-21T16:08:38.810Z,60.13
2018-11-21T16:11:07.270Z,56.37
2018-11-21T16:13:35.669Z,60.53
2018-11-21T16:16:04.003Z,62.33
2018-11-21T16:18:32.368Z,58.23
2018-11-21T16:21:00.761Z,53.73
2018-11-21T16:23:29.200Z,54.73
2018-11-21T16:25:57.703Z,62.10
2018-11-21T16:28:26.231Z,54.10
2018-11-21T16:30:54.574Z,59.13
2018-11-21T16:33:22.908Z,58.63
2018-11-21T16:35:51.371Z,51.20
2018-11-21T16:38:19.678Z,53.60
2018-11-21T16:40:48.034Z,56.87
2018-11-21T16:43:16.419Z,54.30
2018-11-21T16:45:46.895Z,58.30
2018-11-21T16:48:15.252Z,56.23
2018-11-21T16:50:43.730Z,58.50
2018-11-21T16:53:11.993Z,53.90
2018-11-21T16:55:40.476Z,57.83
2018-11-21T16:58:08.800Z,56.63
2018-11-21T17:00:37.242Z,57.07
2018-11-21T17:03:05.776Z,56.53
2018-11-21T17:05:34.196Z,57.87
2018-11-21T17:08:02.642Z,58.40
2018-11-21T17:10:31.774Z,58.63
2018-11-21T17:13:00.138Z,61.40
2018-11-21T17:15:30.156Z,67.03
2018-11-21T17:17:58.461Z,56.90
2018-11-21T17:20:28.702Z,65.40
2018-11-21T17:22:57.919Z,61.33
2018-11-21T17:25:28.443Z,66.43
2018-11-21T17:27:56.841Z,59.50
2018-11-21T17:30:25.407Z,61.00
2018-11-21T17:32:54.078Z,59.53
2018-11-21T17:35:22.993Z,56.73
2018-11-21T17:37:51.860Z,60.13
2018-11-21T17:40:28.913Z,59.10
2018-11-21T17:42:57.647Z,56.70
2018-11-21T17:45:26.030Z,66.03
2018-11-21T17:47:54.395Z,61.40
2018-11-21T17:50:23.813Z,68.10
2018-11-21T17:52:54.433Z,65.77
2018-11-21T17:55:24.508Z,59.00
2018-11-21T17:57:52.840Z,58.90
2018-11-21T18:00:22.747Z,63.80
2018-11-21T18:02:51.131Z,60.10
2018-11-21T18:05:21.007Z,58.37
2018-11-21T18:07:49.411Z,65.40
2018-11-21T18:10:19.213Z,59.57
2018-11-21T18:12:47.791Z,60.80
2018-11-21T18:15:16.974Z,61.70
2018-11-21T18:17:49.189Z,66.47
2018-11-21T18:20:18.267Z,55.97
2018-11-21T18:22:47.376Z,59.60
2018-11-21T18:25:20.377Z,68.40
2018-11-21T18:27:57.904Z,62.87
2018-11-21T18:30:27.770Z,61.30
2018-11-21T18:32:56.193Z,57.63
2018-11-21T18:35:25.589Z,57.13
2018-11-21T18:37:54.363Z,58.83
2018-11-21T18:40:25.424Z,66.70
2018-11-21T18:42:54.742Z,64.37
2018-11-21T18:45:29.866Z,66.13
2018-11-21T18:47:58.363Z,56.83
2018-11-21T18:50:26.737Z,57.33
2018-11-21T18:52:56.570Z,64.73
2018-11-21T18:55:27.675Z,62.10
2018-11-21T18:58:39.258Z,60.40
2018-11-21T19:01:07.555Z,58.53
2018-11-21T19:03:36.094Z,64.20
2018-11-21T19:06:04.748Z,64.33
2018-11-21T19:08:33.384Z,65.47
2018-11-21T19:11:02.078Z,59.83
2018-11-21T19:13:31.222Z,61.97
2018-11-21T19:15:59.909Z,57.30
2018-11-21T19:18:29.026Z,60.30
2018-11-21T19:20:57.678Z,59.67
2018-11-21T19:23:26.043Z,61.17
2018-11-21T19:25:55.098Z,61.53
2018-11-21T19:28:24.217Z,60.17
2018-11-21T19:30:52.807Z,60.87
2018-11-21T19:33:21.334Z,65.73
2018-11-21T19:35:49.914Z,62.33
2018-11-21T19:38:20.098Z,62.40
2018-11-21T19:40:48.019Z,64.60
2018-11-21T19:43:16.350Z,63.93
2018-11-21T19:45:45.626Z,66.60
2018-11-21T19:48:14.063Z,68.83
2018-11-21T19:50:42.515Z,74.97
2018-11-21T19:53:11.323Z,66.17
2018-11-21T19:55:39.991Z,58.87
2018-11-21T19:58:08.599Z,67.27
2018-11-21T20:00:38.096Z,58.33
2018-11-21T20:03:07.033Z,67.00
2018-11-21T20:05:35.999Z,62.37
2018-11-21T20:08:04.598Z,60.17
2018-11-21T20:10:33.571Z,69.47
2018-11-21T20:13:02.170Z,60.17
2018-11-21T20:15:30.498Z,86.10
2018-11-21T20:18:00.618Z,74.77
2018-11-21T20:20:29.120Z,66.77
2018-11-21T20:22:57.388Z,63.47
2018-11-21T20:25:26.881Z,68.20
2018-11-21T20:27:55.368Z,63.17
2018-11-21T20:30:25.357Z,70.97
2018-11-21T20:32:55.151Z,69.67
2018-11-21T20:35:23.549Z,63.00
2018-11-21T20:37:52.288Z,71.40
2018-11-21T20:40:23.091Z,69.33
2018-11-21T20:42:51.763Z,65.60
2018-11-21T20:45:21.691Z,64.23
2018-11-21T20:47:51.113Z,69.30
2018-11-21T20:50:19.489Z,69.07
2018-11-21T20:52:48.573Z,65.10
